createdAt,value
2019-05-26T00:01:04.031Z,9.33
2019-05-26T00:03:33.674Z,9.77
2019-05-26T00:06:03.259Z,10.23
2019-05-26T00:08:32.522Z,9.43
2019-05-26T00:11:01.788Z,10.37
2019-05-26T00:13:31.044Z,9.07
2019-05-26T00:16:00.559Z,10.17
2019-05-26T00:18:33.264Z,9.63
2019-05-26T00:21:01.201Z,9.13
2019-05-26T00:24:09.842Z,9.73
2019-05-26T00:26:39.430Z,9.67
2019-05-26T00:29:09.144Z,9.20
2019-05-26T00:31:50.929Z,9.07
2019-05-26T00:34:09.995Z,9.20
2019-05-26T00:36:39.303Z,8.80
2019-05-26T00:39:09.000Z,9.13
2019-05-26T00:41:38.212Z,9.03
2019-05-26T00:44:07.465Z,9.73
2019-05-26T00:46:36.776Z,9.30
2019-05-26T00:49:45.702Z,9.10
2019-05-26T00:52:14.952Z,9.10
2019-05-26T00:54:44.533Z,8.43
2019-05-26T00:57:13.723Z,8.93
2019-05-26T01:00:01.975Z,8.33
2019-05-26T01:02:31.479Z,8.00
2019-05-26T01:05:00.730Z,7.87
2019-05-26T01:07:30.919Z,7.50
2019-05-26T01:10:00.545Z,8.27
2019-05-26T01:12:30.119Z,7.23
2019-05-26T01:14:59.396Z,6.77
2019-05-26T01:17:29.023Z,7.20
2019-05-26T01:19:58.627Z,7.33
2019-05-26T01:22:27.979Z,7.53
2019-05-26T01:24:57.477Z,6.97
2019-05-26T01:27:26.743Z,7.43
2019-05-26T01:29:56.341Z,6.53
2019-05-26T01:32:25.588Z,6.50
2019-05-26T01:34:54.779Z,6.67
2019-05-26T01:37:24.480Z,6.67
2019-05-26T01:39:53.990Z,6.73
2019-05-26T01:42:23.301Z,5.80
2019-05-26T01:44:52.511Z,5.20
2019-05-26T01:47:22.056Z,5.40
2019-05-26T01:49:51.275Z,5.73
2019-05-26T01:52:21.059Z,5.67
2019-05-26T01:54:50.573Z,6.07
2019-05-26T01:57:19.941Z,5.90
2019-05-26T01:59:49.136Z,5.40
2019-05-26T02:02:18.672Z,5.30
2019-05-26T02:04:48.229Z,5.30
2019-05-26T02:07:17.473Z,5.13
2019-05-26T02:09:46.673Z,5.23
2019-05-26T02:12:16.284Z,4.70
2019-05-26T02:14:45.485Z,4.83
2019-05-26T02:17:14.748Z,4.93
2019-05-26T02:19:43.945Z,4.47
2019-05-26T02:22:13.140Z,4.97
2019-05-26T02:24:42.527Z,5.13
2019-05-26T02:27:11.725Z,5.33
2019-05-26T02:29:40.980Z,4.63
2019-05-26T02:32:10.178Z,4.77
2019-05-26T02:34:39.432Z,4.30
2019-05-26T02:37:08.629Z,4.60
2019-05-26T02:39:37.854Z,4.80
2019-05-26T02:42:07.375Z,4.40
2019-05-26T02:44:36.614Z,4.60
2019-05-26T02:47:06.275Z,3.83
2019-05-26T02:49:35.525Z,3.57
2019-05-26T02:52:04.813Z,3.90
2019-05-26T02:54:34.391Z,4.00
2019-05-26T02:57:03.949Z,3.77
2019-05-26T02:59:33.188Z,4.57
2019-05-26T03:02:04.501Z,4.17
2019-05-26T03:04:33.342Z,3.60
2019-05-26T03:07:41.920Z,3.40
2019-05-26T03:10:11.428Z,3.30
2019-05-26T03:13:21.049Z,3.60
2019-05-26T03:15:50.239Z,3.63
2019-05-26T03:18:19.936Z,3.73
2019-05-26T03:20:49.432Z,3.10
2019-05-26T03:23:18.687Z,3.60
2019-05-26T03:25:47.915Z,3.40
2019-05-26T03:28:17.125Z,3.50
2019-05-26T03:30:46.746Z,3.13
2019-05-26T03:33:16.219Z,3.00
2019-05-26T03:35:45.851Z,2.97
2019-05-26T03:38:15.417Z,3.50
2019-05-26T03:40:44.664Z,3.43
2019-05-26T03:43:14.264Z,2.90
2019-05-26T03:46:21.657Z,3.00
2019-05-26T03:49:30.729Z,2.93
2019-05-26T03:52:00.334Z,2.73
2019-05-26T03:54:29.878Z,2.80
2019-05-26T03:56:59.149Z,2.60
2019-05-26T03:59:28.684Z,2.67
2019-05-26T04:01:58.203Z,2.50
2019-05-26T04:04:28.922Z,2.73
2019-05-26T04:06:58.172Z,2.93
2019-05-26T04:09:27.725Z,2.57
2019-05-26T04:11:57.333Z,2.67
2019-05-26T04:14:26.551Z,2.70
2019-05-26T04:16:58.801Z,2.50
2019-05-26T04:19:28.204Z,2.67
2019-05-26T04:21:57.807Z,3.00
2019-05-26T04:24:27.022Z,3.00
2019-05-26T04:26:56.281Z,2.53
2019-05-26T04:29:25.542Z,2.83
2019-05-26T04:31:54.810Z,2.60
2019-05-26T04:34:24.406Z,3.00
2019-05-26T04:36:53.657Z,2.77
2019-05-26T04:39:23.266Z,2.50
2019-05-26T04:41:52.537Z,2.40
2019-05-26T04:44:22.193Z,2.40
2019-05-26T04:46:51.731Z,2.87
2019-05-26T04:49:21.025Z,2.67
2019-05-26T04:51:50.206Z,2.50
2019-05-26T04:54:19.842Z,2.60
2019-05-26T04:56:49.039Z,2.40
2019-05-26T04:59:18.285Z,2.50
2019-05-26T05:01:47.473Z,2.70
2019-05-26T05:04:16.713Z,2.50
2019-05-26T05:06:45.961Z,2.73
2019-05-26T05:09:15.653Z,2.43
2019-05-26T05:11:45.237Z,2.50
2019-05-26T05:14:14.675Z,2.27
2019-05-26T05:16:43.882Z,2.43
2019-05-26T05:19:13.372Z,2.50
2019-05-26T05:21:42.961Z,2.20
2019-05-26T05:24:12.586Z,2.33
2019-05-26T05:26:41.856Z,2.53
2019-05-26T05:29:11.066Z,2.23
2019-05-26T05:31:40.315Z,2.37
2019-05-26T05:34:09.528Z,2.50
2019-05-26T05:36:39.160Z,2.70
2019-05-26T05:42:17.636Z,2.40
2019-05-26T05:44:46.839Z,2.30
2019-05-26T05:47:16.110Z,2.47
2019-05-26T05:50:04.974Z,2.47
2019-05-26T05:52:34.550Z,2.20
2019-05-26T05:58:12.689Z,2.77
2019-05-26T06:03:37.806Z,2.83
2019-05-26T06:06:07.086Z,2.47
2019-05-26T06:08:36.284Z,2.77
2019-05-26T06:11:15.918Z,2.67
2019-05-26T06:13:36.501Z,3.00
2019-05-26T06:16:06.152Z,3.00
2019-05-26T06:18:35.764Z,3.40
2019-05-26T06:21:05.010Z,3.30
2019-05-26T06:23:36.761Z,3.10
2019-05-26T06:26:05.452Z,2.67
2019-05-26T06:31:10.150Z,3.90
2019-05-26T06:33:39.403Z,3.47
2019-05-26T06:36:08.943Z,3.30
2019-05-26T06:38:38.560Z,3.87
2019-05-26T06:41:08.060Z,3.90
2019-05-26T06:43:37.301Z,3.97
2019-05-26T06:46:06.864Z,3.67
2019-05-26T06:48:36.474Z,3.83
2019-05-26T06:51:05.683Z,3.70
2019-05-26T06:53:37.249Z,3.73
2019-05-26T06:56:05.873Z,2.87
2019-05-26T06:58:35.547Z,3.47
2019-05-26T07:01:04.763Z,3.70
2019-05-26T07:03:34.163Z,4.50
2019-05-26T07:06:03.727Z,4.10
2019-05-26T07:08:33.249Z,4.30
2019-05-26T07:11:02.831Z,4.70
2019-05-26T07:13:32.089Z,4.30
2019-05-26T07:16:01.374Z,4.50
2019-05-26T07:18:31.249Z,4.47
2019-05-26T07:21:00.522Z,4.00
2019-05-26T07:23:29.732Z,4.30
2019-05-26T07:25:59.051Z,4.60
2019-05-26T07:28:28.612Z,4.80
2019-05-26T07:30:58.516Z,4.07
2019-05-26T07:33:28.232Z,4.50
2019-05-26T07:35:57.785Z,4.20
2019-05-26T07:38:27.389Z,4.90
2019-05-26T07:40:56.654Z,4.60
2019-05-26T07:43:28.199Z,4.30
2019-05-26T07:45:57.576Z,4.60
2019-05-26T07:48:27.145Z,4.20
2019-05-26T07:50:56.398Z,4.23
2019-05-26T07:53:26.056Z,4.20
2019-05-26T07:55:55.430Z,4.67
2019-05-26T08:00:59.559Z,4.50
2019-05-26T08:03:28.887Z,4.30
2019-05-26T08:05:58.386Z,4.23
2019-05-26T08:08:27.590Z,4.30
2019-05-26T08:10:57.499Z,4.73
2019-05-26T08:13:27.413Z,4.53
2019-05-26T08:15:57.385Z,4.27
2019-05-26T08:18:26.603Z,4.57
2019-05-26T08:20:55.998Z,4.20
2019-05-26T08:23:25.200Z,4.13
2019-05-26T08:25:55.119Z,4.50
2019-05-26T08:28:24.287Z,3.77
2019-05-26T08:30:53.877Z,4.50
2019-05-26T08:33:23.462Z,4.00
2019-05-26T08:36:11.799Z,4.00
2019-05-26T08:39:00.074Z,4.20
2019-05-26T08:41:29.321Z,4.17
2019-05-26T08:43:58.522Z,4.13
2019-05-26T08:46:27.774Z,4.30
2019-05-26T08:48:57.502Z,4.47
2019-05-26T08:51:45.828Z,4.40
2019-05-26T08:54:15.372Z,4.03
2019-05-26T08:56:44.615Z,3.63
2019-05-26T08:59:14.138Z,4.53
2019-05-26T09:02:02.464Z,3.90
2019-05-26T09:04:31.654Z,4.13
2019-05-26T09:07:00.898Z,4.53
2019-05-26T09:09:30.373Z,3.83
2019-05-26T09:12:00.185Z,3.30
2019-05-26T09:14:48.472Z,3.80
2019-05-26T09:17:18.294Z,3.83
2019-05-26T09:19:48.404Z,3.83
2019-05-26T09:22:17.954Z,4.17
2019-05-26T09:24:47.279Z,3.57
2019-05-26T09:27:24.703Z,4.00
2019-05-26T09:29:53.915Z,3.60
2019-05-26T09:32:23.164Z,4.40
2019-05-26T09:34:53.251Z,3.63
2019-05-26T09:37:22.907Z,3.73
2019-05-26T09:39:52.125Z,3.47
2019-05-26T09:42:22.482Z,3.60
2019-05-26T09:44:52.587Z,3.90
2019-05-26T09:47:21.891Z,3.53
2019-05-26T09:49:51.715Z,3.70
2019-05-26T09:52:21.428Z,4.00
2019-05-26T09:54:51.022Z,3.30
2019-05-26T09:57:20.340Z,4.13
2019-05-26T09:59:49.560Z,3.43
2019-05-26T10:02:18.760Z,2.97
2019-05-26T10:04:48.339Z,3.90
2019-05-26T10:07:18.258Z,4.00
2019-05-26T10:09:47.509Z,3.50
2019-05-26T10:12:17.161Z,3.37
2019-05-26T10:14:47.815Z,3.50
2019-05-26T10:17:17.849Z,3.43
2019-05-26T10:19:47.100Z,3.40
2019-05-26T10:22:16.608Z,3.37
2019-05-26T10:24:45.848Z,3.20
2019-05-26T10:27:34.264Z,3.90
2019-05-26T10:30:03.572Z,2.90
2019-05-26T10:32:33.123Z,2.80
2019-05-26T10:35:02.319Z,2.40
2019-05-26T10:37:31.867Z,2.70
2019-05-26T10:40:01.069Z,3.80
2019-05-26T10:42:30.671Z,2.50
2019-05-26T10:44:59.876Z,2.33
2019-05-26T10:47:29.120Z,2.23
2019-05-26T10:49:58.363Z,2.20
2019-05-26T10:52:27.632Z,2.47
2019-05-26T10:54:57.176Z,2.53
2019-05-26T10:57:26.809Z,2.67
2019-05-26T11:00:15.072Z,2.70
2019-05-26T11:02:44.629Z,2.50
2019-05-26T11:05:53.476Z,2.53
2019-05-26T11:08:23.369Z,2.60
2019-05-26T11:10:52.588Z,2.40
2019-05-26T11:13:22.096Z,2.70
2019-05-26T11:15:51.335Z,2.77
2019-05-26T11:18:20.605Z,3.40
2019-05-26T11:20:50.286Z,2.83
2019-05-26T11:23:19.485Z,3.33
2019-05-26T11:25:49.443Z,3.00
2019-05-26T11:28:18.633Z,2.57
2019-05-26T11:30:47.867Z,2.70
2019-05-26T11:33:17.111Z,2.43
2019-05-26T11:35:46.590Z,2.53
2019-05-26T11:38:16.282Z,2.90
2019-05-26T11:40:45.557Z,2.70
2019-05-26T11:43:17.201Z,2.57
2019-05-26T11:45:45.718Z,2.70
2019-05-26T11:48:14.912Z,2.30
2019-05-26T11:50:44.172Z,2.70
2019-05-26T11:53:13.801Z,2.40
2019-05-26T11:55:43.365Z,2.40
2019-05-26T11:58:12.607Z,2.40
2019-05-26T12:00:41.804Z,2.63
2019-05-26T12:03:11.347Z,2.40
2019-05-26T12:05:40.530Z,2.83
2019-05-26T12:08:10.358Z,2.40
2019-05-26T12:10:39.903Z,2.40
2019-05-26T12:13:09.231Z,2.90
2019-05-26T12:15:38.684Z,2.57
2019-05-26T12:18:08.381Z,2.60
2019-05-26T12:20:56.649Z,2.90
2019-05-26T12:23:26.235Z,2.30
2019-05-26T12:25:56.048Z,2.20
2019-05-26T12:28:25.682Z,2.03
2019-05-26T12:30:54.867Z,2.40
2019-05-26T12:33:24.567Z,2.67
2019-05-26T12:35:53.771Z,2.57
2019-05-26T12:38:23.007Z,2.20
2019-05-26T12:40:52.200Z,2.40
2019-05-26T12:43:21.808Z,2.30
2019-05-26T12:45:51.341Z,2.50
2019-05-26T12:48:20.584Z,2.50
2019-05-26T12:50:49.783Z,2.47
2019-05-26T12:53:19.036Z,2.30
2019-05-26T12:55:48.567Z,2.30
2019-05-26T12:58:17.808Z,2.37
2019-05-26T13:00:49.841Z,2.20
2019-05-26T13:03:17.979Z,2.40
2019-05-26T13:05:47.512Z,2.47
2019-05-26T13:08:16.753Z,2.10
2019-05-26T13:10:45.941Z,2.10
2019-05-26T13:13:15.615Z,2.10
2019-05-26T13:15:44.817Z,2.58
2019-05-26T13:18:14.068Z,2.22
2019-05-26T13:20:43.536Z,2.40
2019-05-26T13:23:12.731Z,2.58
2019-05-26T13:25:42.429Z,1.95
2019-05-26T13:28:11.657Z,2.50
2019-05-26T13:30:40.922Z,1.97
2019-05-26T13:33:10.122Z,2.20
2019-05-26T13:35:39.448Z,2.40
2019-05-26T13:38:48.336Z,2.20
2019-05-26T13:41:17.603Z,2.15
2019-05-26T13:43:47.177Z,1.98
2019-05-26T13:46:16.430Z,2.08
2019-05-26T13:51:34.207Z,2.20
2019-05-26T13:54:03.396Z,2.27
2019-05-26T13:56:32.661Z,2.20
2019-05-26T13:59:01.857Z,2.35
2019-05-26T14:01:31.105Z,2.30
2019-05-26T14:04:00.294Z,2.10
2019-05-26T14:06:29.557Z,2.60
2019-05-26T14:09:02.063Z,2.22
2019-05-26T14:11:30.076Z,2.20
2019-05-26T14:13:59.345Z,2.57
2019-05-26T14:17:07.983Z,2.22
2019-05-26T14:20:16.560Z,2.07
2019-05-26T14:22:45.799Z,1.95
2019-05-26T14:25:15.770Z,2.33
2019-05-26T14:27:45.998Z,2.40
2019-05-26T14:33:24.647Z,2.10
2019-05-26T14:35:53.883Z,2.30
2019-05-26T14:38:23.134Z,2.37
2019-05-26T14:40:52.653Z,2.30
2019-05-26T14:43:22.254Z,2.20
2019-05-26T14:46:10.379Z,2.07
2019-05-26T14:48:39.641Z,2.00
2019-05-26T14:51:09.242Z,2.05
2019-05-26T14:53:40.305Z,2.25
2019-05-26T14:56:09.894Z,2.20
2019-05-26T14:58:39.141Z,1.95
2019-05-26T15:01:08.500Z,2.30
2019-05-26T15:03:37.689Z,2.35
2019-05-26T15:06:06.943Z,2.27
2019-05-26T15:08:36.461Z,2.33
2019-05-26T15:11:06.066Z,2.50
2019-05-26T15:13:35.313Z,2.22
2019-05-26T15:16:09.953Z,2.22
2019-05-26T15:18:36.246Z,2.10
2019-05-26T15:21:05.640Z,2.40
2019-05-26T15:23:35.223Z,2.20
2019-05-26T15:26:05.559Z,2.33
2019-05-26T15:28:36.154Z,2.40
2019-05-26T15:31:05.439Z,2.77
2019-05-26T15:33:34.638Z,2.58
2019-05-26T15:36:03.849Z,2.10
2019-05-26T15:38:42.573Z,2.40
2019-05-26T15:41:04.380Z,2.40
2019-05-26T15:43:33.622Z,2.10
2019-05-26T15:46:03.122Z,2.22
2019-05-26T15:48:32.537Z,2.05
2019-05-26T15:51:01.728Z,2.40
2019-05-26T15:53:30.988Z,2.52
2019-05-26T15:56:00.189Z,2.62
2019-05-26T16:01:23.939Z,2.20
2019-05-26T16:03:53.823Z,2.22
2019-05-26T16:06:23.012Z,2.30
2019-05-26T16:08:52.207Z,2.45
2019-05-26T16:11:21.835Z,2.08
2019-05-26T16:13:51.114Z,2.35
2019-05-26T16:16:20.426Z,2.20
2019-05-26T16:21:37.919Z,2.30
2019-05-26T16:24:07.482Z,2.47
2019-05-26T16:26:38.098Z,2.20
2019-05-26T16:29:07.296Z,2.60
2019-05-26T16:31:36.953Z,2.30
2019-05-26T16:34:06.519Z,2.40
2019-05-26T16:36:36.538Z,2.40
2019-05-26T16:39:46.703Z,2.15
2019-05-26T16:42:16.343Z,2.55
2019-05-26T16:44:45.874Z,2.83
2019-05-26T16:47:15.077Z,2.60
2019-05-26T16:49:44.318Z,2.45
2019-05-26T16:52:13.961Z,2.20
2019-05-26T16:54:43.213Z,2.58
2019-05-26T16:57:12.714Z,2.50
2019-05-26T17:00:00.964Z,2.90
2019-05-26T17:02:30.465Z,2.80
2019-05-26T17:04:59.729Z,2.30
2019-05-26T17:07:28.936Z,2.50
2019-05-26T17:09:58.568Z,2.92
2019-05-26T17:12:27.822Z,2.55
2019-05-26T17:14:57.382Z,2.50
2019-05-26T17:17:26.958Z,2.90
2019-05-26T17:19:56.626Z,3.00
2019-05-26T17:22:44.802Z,2.27
2019-05-26T17:25:14.333Z,2.37
2019-05-26T17:27:43.562Z,2.50
2019-05-26T17:30:52.191Z,2.83
2019-05-26T17:33:21.375Z,2.55
2019-05-26T17:35:50.960Z,2.70
2019-05-26T17:38:20.289Z,3.00
2019-05-26T17:40:50.279Z,2.65
2019-05-26T17:43:19.476Z,3.25
2019-05-26T17:45:48.725Z,2.90
2019-05-26T17:48:17.959Z,3.30
2019-05-26T17:50:47.279Z,2.62
2019-05-26T17:53:16.468Z,2.70
2019-05-26T17:55:45.774Z,3.25
2019-05-26T17:58:14.970Z,3.02
2019-05-26T18:00:44.219Z,3.75
2019-05-26T18:03:13.705Z,2.72
2019-05-26T18:05:42.915Z,2.72
2019-05-26T18:08:12.157Z,3.30
2019-05-26T18:10:41.667Z,2.60
2019-05-26T18:13:10.957Z,2.87
2019-05-26T18:15:40.144Z,3.33
2019-05-26T18:18:10.117Z,3.10
2019-05-26T18:20:39.324Z,2.98
2019-05-26T18:23:08.568Z,2.93
2019-05-26T18:28:26.734Z,2.67
2019-05-26T18:30:56.699Z,2.50
2019-05-26T18:33:26.005Z,3.43
2019-05-26T18:35:55.565Z,3.50
2019-05-26T18:38:24.861Z,3.30
2019-05-26T18:40:54.053Z,3.10
2019-05-26T18:43:23.322Z,2.70
2019-05-26T18:45:52.860Z,2.60
2019-05-26T18:48:22.776Z,3.13
2019-05-26T18:50:52.383Z,2.60
2019-05-26T18:53:21.572Z,2.63
2019-05-26T18:55:50.839Z,2.53
2019-05-26T18:58:20.341Z,2.80
2019-05-26T19:00:49.870Z,3.10
2019-05-26T19:03:20.592Z,3.00
2019-05-26T19:05:49.838Z,3.60
2019-05-26T19:08:19.385Z,3.23
2019-05-26T19:10:48.935Z,3.10
2019-05-26T19:13:18.544Z,3.10
2019-05-26T19:15:47.942Z,3.30
2019-05-26T19:18:20.185Z,3.30
2019-05-26T19:20:48.495Z,3.10
2019-05-26T19:23:18.503Z,3.60
2019-05-26T19:26:27.158Z,3.60
2019-05-26T19:28:56.735Z,4.47
2019-05-26T19:31:26.025Z,5.03
2019-05-26T19:33:55.242Z,4.37
2019-05-26T19:36:44.174Z,3.93
2019-05-26T19:39:13.375Z,4.97
2019-05-26T19:41:42.645Z,3.87
2019-05-26T19:44:12.200Z,3.33
2019-05-26T19:46:41.815Z,3.90
2019-05-26T19:49:11.318Z,4.23
2019-05-26T19:51:40.948Z,4.47
2019-05-26T19:54:10.147Z,3.73
2019-05-26T19:56:39.403Z,3.37
2019-05-26T19:59:08.915Z,4.13
2019-05-26T20:01:38.628Z,3.80
2019-05-26T20:04:10.439Z,4.30
2019-05-26T20:06:39.699Z,3.90
2019-05-26T20:09:48.968Z,3.80
2019-05-26T20:12:18.788Z,3.70
2019-05-26T20:14:48.271Z,3.87
2019-05-26T20:17:17.856Z,4.30
2019-05-26T20:19:47.353Z,4.10
2019-05-26T20:22:16.851Z,3.80
2019-05-26T20:24:46.250Z,3.27
2019-05-26T20:27:15.437Z,3.30
2019-05-26T20:29:45.072Z,3.23
2019-05-26T20:32:14.336Z,3.60
2019-05-26T20:34:43.874Z,3.70
2019-05-26T20:37:13.094Z,4.10
2019-05-26T20:39:42.778Z,3.53
2019-05-26T20:42:12.001Z,3.50
2019-05-26T20:44:41.276Z,3.60
2019-05-26T20:47:10.526Z,3.93
2019-05-26T20:49:45.287Z,4.13
2019-05-26T20:52:11.241Z,4.37
2019-05-26T20:54:40.726Z,5.70
2019-05-26T20:57:09.976Z,4.60
2019-05-26T20:59:39.630Z,5.07
2019-05-26T21:02:09.915Z,4.90
2019-05-26T21:04:39.119Z,4.90
2019-05-26T21:07:08.357Z,4.53
2019-05-26T21:09:37.854Z,4.10
2019-05-26T21:12:26.314Z,4.93
2019-05-26T21:14:55.913Z,4.57
2019-05-26T21:17:25.151Z,5.30
2019-05-26T21:19:54.895Z,4.80
2019-05-26T21:24:59.655Z,5.10
2019-05-26T21:27:28.903Z,5.27
2019-05-26T21:29:58.104Z,4.90
2019-05-26T21:32:31.198Z,4.80
2019-05-26T21:34:58.603Z,5.10
2019-05-26T21:37:28.215Z,4.90
2019-05-26T21:39:57.402Z,5.00
2019-05-26T21:42:26.651Z,4.60
2019-05-26T21:44:55.837Z,5.13
2019-05-26T21:47:25.723Z,6.27
2019-05-26T21:49:54.915Z,6.00
2019-05-26T21:52:24.182Z,6.60
2019-05-26T21:54:53.723Z,8.77
2019-05-26T21:57:22.915Z,5.43
2019-05-26T21:59:52.446Z,5.30
2019-05-26T22:02:21.635Z,5.30
2019-05-26T22:04:51.216Z,5.07
2019-05-26T22:07:21.800Z,5.30
2019-05-26T22:09:51.367Z,5.40
2019-05-26T22:12:20.972Z,5.20
2019-05-26T22:14:50.269Z,5.30
2019-05-26T22:17:19.460Z,4.63
2019-05-26T22:19:48.700Z,4.73
2019-05-26T22:22:18.176Z,4.67
2019-05-26T22:24:47.786Z,5.17
2019-05-26T22:27:16.998Z,4.73
2019-05-26T22:29:46.225Z,4.87
2019-05-26T22:32:15.544Z,4.90
2019-05-26T22:34:44.802Z,5.07
2019-05-26T22:37:13.987Z,5.20
2019-05-26T22:39:43.604Z,4.60
2019-05-26T22:42:13.500Z,4.87
2019-05-26T22:44:42.759Z,5.10
2019-05-26T22:47:11.952Z,4.87
2019-05-26T22:52:17.932Z,4.77
2019-05-26T22:54:48.175Z,4.60
2019-05-26T22:57:17.345Z,4.97
2019-05-26T22:59:46.576Z,4.97
2019-05-26T23:02:15.904Z,4.67
2019-05-26T23:05:04.315Z,4.60
2019-05-26T23:07:52.591Z,4.80
2019-05-26T23:10:21.848Z,5.00
2019-05-26T23:12:51.044Z,4.90
2019-05-26T23:15:20.791Z,4.33
2019-05-26T23:17:49.980Z,4.57
2019-05-26T23:20:19.242Z,4.53
2019-05-26T23:22:48.446Z,5.10
2019-05-26T23:25:57.098Z,4.57
2019-05-26T23:28:26.290Z,4.53
2019-05-26T23:30:55.540Z,4.90
2019-05-26T23:33:24.741Z,4.87
2019-05-26T23:35:53.994Z,5.10
2019-05-26T23:38:23.498Z,5.27
2019-05-26T23:40:52.751Z,5.00
2019-05-26T23:43:21.960Z,4.80
2019-05-26T23:45:51.499Z,4.70
2019-05-26T23:48:21.363Z,5.20
2019-05-26T23:50:50.918Z,5.20
2019-05-26T23:53:20.115Z,5.00
2019-05-26T23:55:49.364Z,4.57
2019-05-26T23:58:18.557Z,5.00
